Terminal Aerodrome Forecast
Issued by NWS Cleveland, OH

Home | Current Version | Previous Version | Text Only | Print | Product List | Glossary Off
Versions: 1 2 3 4 5 6 7 8 9 10 11 12 13 14 15 16 17 18 19

000
FTUS41 KCLE 021410 AAA
TAFERI
TAF AMD
KERI 021410Z 0214/0312 24010G15KT 5SM -SHRA OVC015
      TEMPO 0214/0218 OVC025
     FM022000 27015G25KT P6SM VCSH OVC025
     FM030300 30012G20KT P6SM OVC012=

USA.gov is the U.S. government's official web portal to all federal, state and local government web resources and services.